createdAt,value
2018-05-21T00:00:09.781Z,55.02
2018-05-21T00:01:09.839Z,54.57
2018-05-21T00:02:09.784Z,54.92
2018-05-21T00:03:09.759Z,54.62
2018-05-21T00:04:09.791Z,53.88
2018-05-21T00:05:09.786Z,54.45
2018-05-21T00:06:09.818Z,54.94
2018-05-21T00:07:09.789Z,53.69
2018-05-21T00:08:09.786Z,54.48
2018-05-21T00:09:09.803Z,53.7
2018-05-21T00:10:09.770Z,54.03
2018-05-21T00:11:09.884Z,54.63
2018-05-21T00:12:09.759Z,54.13
2018-05-21T00:13:09.802Z,55.22
2018-05-21T00:14:09.755Z,53.76
2018-05-21T00:15:09.825Z,54.24
2018-05-21T00:16:09.812Z,55.29
2018-05-21T00:17:09.793Z,54.4
2018-05-21T00:18:09.771Z,54.61
2018-05-21T00:19:09.783Z,53.98
2018-05-21T00:20:09.781Z,54.96
2018-05-21T00:21:09.920Z,54.64
2018-05-21T00:22:09.794Z,55.59
2018-05-21T00:23:09.797Z,55.2
2018-05-21T00:24:09.762Z,55.21
2018-05-21T00:25:09.768Z,54.86
2018-05-21T00:26:09.778Z,55.21
2018-05-21T00:27:09.783Z,54.01
2018-05-21T00:28:09.788Z,54.09
2018-05-21T00:29:09.821Z,54.34
2018-05-21T00:30:09.790Z,55.62
2018-05-21T00:31:09.821Z,55.38
2018-05-21T00:32:09.814Z,54.71
2018-05-21T00:33:09.789Z,54.87
2018-05-21T00:34:09.784Z,54.27
2018-05-21T00:35:09.846Z,54.06
2018-05-21T00:36:09.784Z,54.28
2018-05-21T00:37:09.796Z,54.31
2018-05-21T00:38:09.780Z,53.62
2018-05-21T00:39:09.809Z,53.69
2018-05-21T00:40:09.773Z,53.92
2018-05-21T00:41:09.807Z,54.12
2018-05-21T00:42:09.773Z,54.34
2018-05-21T00:43:09.770Z,53.89
2018-05-21T00:44:09.892Z,54.35
2018-05-21T00:45:09.860Z,53.97
2018-05-21T00:46:09.771Z,52.85
2018-05-21T00:47:09.784Z,53.33
2018-05-21T00:48:09.797Z,53.05
2018-05-21T00:49:09.807Z,53.15
2018-05-21T00:50:09.806Z,53.42
2018-05-21T00:51:09.837Z,52.88
2018-05-21T00:52:09.800Z,53.26
2018-05-21T00:53:09.894Z,53.62
2018-05-21T00:54:09.815Z,53.53
2018-05-21T00:55:09.840Z,53.14
2018-05-21T00:56:09.884Z,53.46
2018-05-21T00:57:09.793Z,53.48
2018-05-21T00:58:10.106Z,53.12
2018-05-21T00:59:09.901Z,53.75
2018-05-21T01:00:09.810Z,52.78
2018-05-21T01:01:09.995Z,53.08
2018-05-21T01:02:09.819Z,53.03
2018-05-21T01:03:09.809Z,53.2
2018-05-21T01:04:09.805Z,53.57
2018-05-21T01:05:09.869Z,53.48
2018-05-21T01:06:09.795Z,53.32
2018-05-21T01:07:09.956Z,52.68
2018-05-21T01:08:09.811Z,52.86
2018-05-21T01:09:09.989Z,53.41
2018-05-21T01:10:09.862Z,53.2
2018-05-21T01:11:09.895Z,53.08
2018-05-21T01:12:09.804Z,51.91
2018-05-21T01:13:09.818Z,52.55
2018-05-21T01:14:09.795Z,52.48
2018-05-21T01:15:10.090Z,52.23
2018-05-21T01:16:09.855Z,52.49
2018-05-21T01:17:09.805Z,52.43
2018-05-21T01:18:09.788Z,52.2
2018-05-21T01:19:09.991Z,52.46
2018-05-21T01:20:10.059Z,53.24
2018-05-21T01:21:09.825Z,52.19
2018-05-21T01:22:09.832Z,52.05
2018-05-21T01:23:09.819Z,51.77
2018-05-21T01:24:09.991Z,52.22
2018-05-21T01:25:09.865Z,52.14
2018-05-21T01:26:09.901Z,53.15
2018-05-21T01:27:09.819Z,52.47
2018-05-21T01:28:09.807Z,52.42
2018-05-21T01:29:09.801Z,52.9
2018-05-21T01:30:09.819Z,52.52
2018-05-21T01:31:09.800Z,52.94
2018-05-21T01:32:09.814Z,52.23
2018-05-21T01:33:09.929Z,52.34
2018-05-21T01:34:09.789Z,52.12
2018-05-21T01:35:09.825Z,52.25
2018-05-21T01:36:09.807Z,51.68
2018-05-21T01:37:09.807Z,51.76
2018-05-21T01:38:09.793Z,52.19
2018-05-21T01:39:09.803Z,52.39
2018-05-21T01:40:09.798Z,52.06
2018-05-21T01:41:09.803Z,52.88
2018-05-21T01:42:09.818Z,52.25
2018-05-21T01:43:09.849Z,52.53
2018-05-21T01:44:09.846Z,52.75
2018-05-21T01:45:09.822Z,52.09
2018-05-21T01:46:09.786Z,52.43
2018-05-21T01:47:09.816Z,52.5
2018-05-21T01:48:09.801Z,52.87
2018-05-21T01:49:09.839Z,53.16
2018-05-21T01:50:09.826Z,52.38
2018-05-21T01:51:09.843Z,52.92
2018-05-21T01:52:09.813Z,53.37
2018-05-21T01:53:09.803Z,53.04
2018-05-21T01:54:09.801Z,53.35
2018-05-21T01:55:09.843Z,53.2
2018-05-21T01:56:10.096Z,52.87
2018-05-21T01:57:09.955Z,52.46
2018-05-21T01:58:09.890Z,52.79
2018-05-21T01:59:09.850Z,53.07
2018-05-21T02:00:09.808Z,53.45
2018-05-21T02:01:09.815Z,52.71
2018-05-21T02:02:09.949Z,52.8
2018-05-21T02:03:09.864Z,53.48
2018-05-21T02:04:09.813Z,53.01
2018-05-21T02:05:09.946Z,53.04
2018-05-21T02:06:09.835Z,53.13
2018-05-21T02:07:09.962Z,53.01
2018-05-21T02:08:09.957Z,52.88
2018-05-21T02:09:09.826Z,53.06
2018-05-21T02:10:09.826Z,52.67
2018-05-21T02:11:09.974Z,53.01
2018-05-21T02:12:09.828Z,53.69
2018-05-21T02:13:09.863Z,53.2
2018-05-21T02:14:09.901Z,53.44
2018-05-21T02:15:09.909Z,53.46
2018-05-21T02:16:09.985Z,53.27
2018-05-21T02:17:09.840Z,53.18
2018-05-21T02:18:09.958Z,53.46
2018-05-21T02:19:09.940Z,53.3
2018-05-21T02:20:10.103Z,52.65
2018-05-21T02:21:09.956Z,53.33
2018-05-21T02:22:09.957Z,53.56
2018-05-21T02:23:10.374Z,53.25
2018-05-21T02:24:09.867Z,53.25
2018-05-21T02:25:09.838Z,52.79
2018-05-21T02:26:09.818Z,53.35
2018-05-21T02:27:09.972Z,52.63
2018-05-21T02:28:09.975Z,52.9
2018-05-21T02:29:09.903Z,53.02
2018-05-21T02:30:09.875Z,53.65
2018-05-21T02:31:09.844Z,52.97
2018-05-21T02:32:09.914Z,53.45
2018-05-21T02:33:09.950Z,53.25
2018-05-21T02:34:09.843Z,52.97
2018-05-21T02:35:09.957Z,52.72
2018-05-21T02:36:09.961Z,52.61
2018-05-21T02:37:09.920Z,53.07
2018-05-21T02:38:09.887Z,52.94
2018-05-21T02:39:09.959Z,52.73
2018-05-21T02:40:09.899Z,53.07
2018-05-21T02:41:09.966Z,52.79
2018-05-21T02:42:09.840Z,52.76
2018-05-21T02:43:09.899Z,53.27
2018-05-21T02:44:09.869Z,53.19
2018-05-21T02:45:10.116Z,53.66
2018-05-21T02:46:09.959Z,53.65
2018-05-21T02:47:09.857Z,53.35
2018-05-21T02:48:09.834Z,53.25
2018-05-21T02:49:09.839Z,53.22
2018-05-21T02:50:09.899Z,53.34
2018-05-21T02:51:09.858Z,53.49
2018-05-21T02:52:09.829Z,53.11
2018-05-21T02:53:09.869Z,53.58
2018-05-21T02:54:09.970Z,53.4
2018-05-21T02:55:09.843Z,53.43
2018-05-21T02:56:09.846Z,53.57
2018-05-21T02:57:09.946Z,53.81
2018-05-21T02:58:09.861Z,53.58
2018-05-21T02:59:09.851Z,53.38
2018-05-21T03:00:09.835Z,53.68
2018-05-21T03:01:09.844Z,53.85
2018-05-21T03:02:09.850Z,54.3
2018-05-21T03:03:09.854Z,53.44
2018-05-21T03:04:09.845Z,53.5
2018-05-21T03:05:09.851Z,53.91
2018-05-21T03:06:09.879Z,53.72
2018-05-21T03:07:09.925Z,53.87
2018-05-21T03:08:09.965Z,54.02
2018-05-21T03:09:09.921Z,54.34
2018-05-21T03:10:09.868Z,54.31
2018-05-21T03:11:09.865Z,54.15
2018-05-21T03:12:09.873Z,53.86
2018-05-21T03:13:10.037Z,54.33
2018-05-21T03:14:10.020Z,54.32
2018-05-21T03:15:09.890Z,53.9
2018-05-21T03:16:09.990Z,54.26
2018-05-21T03:17:09.924Z,54.18
2018-05-21T03:18:09.858Z,54.34
2018-05-21T03:19:09.973Z,54.37
2018-05-21T03:20:09.848Z,54.6
2018-05-21T03:21:09.919Z,54.04
2018-05-21T03:22:09.864Z,54.73
2018-05-21T03:23:09.878Z,54.24
2018-05-21T03:24:10.009Z,54.14
2018-05-21T03:25:09.884Z,54.49
2018-05-21T03:26:09.890Z,54.62
2018-05-21T03:27:09.952Z,54.23
2018-05-21T03:28:09.899Z,54.35
2018-05-21T03:29:09.976Z,54.6
2018-05-21T03:30:09.859Z,54.68
2018-05-21T03:31:09.990Z,54.49
2018-05-21T03:32:09.996Z,54.69
2018-05-21T03:33:09.921Z,54.34
2018-05-21T03:34:09.960Z,54.73
2018-05-21T03:35:10.091Z,54.69
2018-05-21T03:36:09.991Z,55.09
2018-05-21T03:37:09.858Z,54.89
2018-05-21T03:38:10.022Z,54.63
2018-05-21T03:39:09.974Z,54.72
2018-05-21T03:40:09.951Z,54.57
2018-05-21T03:41:09.926Z,54.97
2018-05-21T03:42:09.897Z,55
2018-05-21T03:43:09.956Z,55.03
2018-05-21T03:44:09.929Z,54.95
2018-05-21T03:45:10.006Z,54.97
2018-05-21T03:46:09.929Z,55.17
2018-05-21T03:47:09.917Z,54.92
2018-05-21T03:48:09.901Z,55.3
2018-05-21T03:49:09.986Z,55.03
2018-05-21T03:50:09.909Z,55.45
2018-05-21T03:51:09.880Z,55.43
2018-05-21T03:52:09.870Z,55.77
2018-05-21T03:53:09.941Z,55.52
2018-05-21T03:54:09.987Z,55.31
2018-05-21T03:55:09.958Z,55.49
2018-05-21T03:56:09.947Z,55.55
2018-05-21T03:57:09.893Z,55.76
2018-05-21T03:58:09.872Z,55.66
2018-05-21T03:59:09.888Z,55.76
2018-05-21T04:00:09.875Z,55.68
2018-05-21T04:01:09.885Z,56.01
2018-05-21T04:02:09.854Z,55.76
2018-05-21T04:03:09.870Z,55.79
2018-05-21T04:04:09.910Z,55.55
2018-05-21T04:05:09.879Z,56.24
2018-05-21T04:06:09.862Z,55.84
2018-05-21T04:07:10.064Z,56.17
2018-05-21T04:08:09.878Z,55.93
2018-05-21T04:09:09.874Z,55.84
2018-05-21T04:10:09.883Z,56.01
2018-05-21T04:11:09.865Z,56.15
2018-05-21T04:12:09.901Z,56.35
2018-05-21T04:13:09.964Z,55.98
2018-05-21T04:14:09.888Z,56.47
2018-05-21T04:15:09.990Z,56.33
2018-05-21T04:16:09.871Z,56.31
2018-05-21T04:17:09.887Z,56.44
2018-05-21T04:18:09.872Z,56.52
2018-05-21T04:19:09.909Z,56.49
2018-05-21T04:20:09.939Z,56.76
2018-05-21T04:21:10.007Z,56.47
2018-05-21T04:22:09.879Z,56.83
2018-05-21T04:23:10.008Z,56.83
2018-05-21T04:24:10.039Z,56.9
2018-05-21T04:25:09.983Z,57.24
2018-05-21T04:26:09.937Z,57.29
2018-05-21T04:27:10.079Z,57.11
2018-05-21T04:28:09.992Z,56.87
2018-05-21T04:29:09.909Z,57.3
2018-05-21T04:30:09.952Z,57.65
2018-05-21T04:31:09.975Z,57.08
2018-05-21T04:32:09.969Z,57.31
2018-05-21T04:33:09.966Z,57.57
2018-05-21T04:34:09.992Z,57.17
2018-05-21T04:35:09.959Z,57.51
2018-05-21T04:36:09.947Z,57.76
2018-05-21T04:37:09.997Z,57.61
2018-05-21T04:38:10.104Z,58.01
2018-05-21T04:39:10.008Z,57.91
2018-05-21T04:40:10.021Z,57.91
2018-05-21T04:41:09.945Z,58
2018-05-21T04:42:09.918Z,58.04
2018-05-21T04:43:10.009Z,58.22
2018-05-21T04:44:10.037Z,57.98
2018-05-21T04:45:10.035Z,58.24
2018-05-21T04:46:09.995Z,58.64
2018-05-21T04:47:10.042Z,58.8
2018-05-21T04:48:09.935Z,58.45
2018-05-21T04:49:09.898Z,58.6
2018-05-21T04:50:10.078Z,58.66
2018-05-21T04:51:09.978Z,58.78
2018-05-21T04:52:09.980Z,58.95
2018-05-21T04:53:10.005Z,59.09
2018-05-21T04:54:09.902Z,59.29
2018-05-21T04:55:09.972Z,58.77
2018-05-21T04:56:09.980Z,58.93
2018-05-21T04:57:10.027Z,59.46
2018-05-21T04:58:09.932Z,59.36
2018-05-21T04:59:10.024Z,59.19
2018-05-21T05:00:10.014Z,59.08
2018-05-21T05:01:09.911Z,59.28
2018-05-21T05:02:09.956Z,59.4
2018-05-21T05:03:09.974Z,59.62
2018-05-21T05:04:09.922Z,59.2
2018-05-21T05:05:10.026Z,59.58
2018-05-21T05:06:09.959Z,59.66
2018-05-21T05:07:10.127Z,59.48
2018-05-21T05:08:09.900Z,59.56
2018-05-21T05:09:09.967Z,59.89
2018-05-21T05:10:09.915Z,60.14
2018-05-21T05:11:09.922Z,60.29
2018-05-21T05:12:09.907Z,60.37
2018-05-21T05:13:09.907Z,60.36
2018-05-21T05:14:09.975Z,60.54
2018-05-21T05:15:09.978Z,59.87
2018-05-21T05:16:09.950Z,60.2
2018-05-21T05:17:09.935Z,60.31
2018-05-21T05:18:09.918Z,60.44
2018-05-21T05:19:09.902Z,60.05
2018-05-21T05:20:09.905Z,60
2018-05-21T05:21:10.371Z,60.51
2018-05-21T05:22:09.967Z,60.47
2018-05-21T05:23:09.923Z,60.2
2018-05-21T05:24:09.975Z,60.07
2018-05-21T05:25:09.929Z,60.4
2018-05-21T05:26:09.923Z,60.24
2018-05-21T05:27:09.992Z,60.69
2018-05-21T05:28:09.986Z,61.14
2018-05-21T05:29:09.915Z,60.76
2018-05-21T05:30:09.971Z,60.67
2018-05-21T05:31:10.051Z,60.23
2018-05-21T05:32:09.919Z,60.84
2018-05-21T05:33:09.928Z,60.48
2018-05-21T05:34:09.965Z,60.47
2018-05-21T05:35:09.970Z,60.29
2018-05-21T05:36:09.979Z,60.78
2018-05-21T05:37:09.917Z,60.5
2018-05-21T05:38:09.915Z,60.53
2018-05-21T05:39:10.013Z,60.29
2018-05-21T05:40:09.987Z,60.85
2018-05-21T05:41:10.020Z,60.91
2018-05-21T05:42:10.546Z,60.69
2018-05-21T05:43:10.655Z,60.12
2018-05-21T05:44:10.065Z,60.31
2018-05-21T05:45:09.985Z,60.37
2018-05-21T05:46:09.976Z,61.1
2018-05-21T05:47:09.983Z,61.08
2018-05-21T05:48:09.936Z,61.26
2018-05-21T05:49:09.952Z,61.12
2018-05-21T05:50:09.954Z,60.83
2018-05-21T05:51:09.960Z,61.09
2018-05-21T05:52:10.008Z,61.29
2018-05-21T05:53:10.063Z,61.12
2018-05-21T05:54:09.943Z,61.06
2018-05-21T05:55:09.981Z,61.05
2018-05-21T05:56:10.038Z,60.78
2018-05-21T05:57:09.991Z,61.12
2018-05-21T05:58:10.005Z,61.21
2018-05-21T05:59:10.082Z,61.39
2018-05-21T06:00:09.983Z,61.33
2018-05-21T06:01:09.953Z,61.2
2018-05-21T06:02:09.976Z,61.35
2018-05-21T06:03:09.987Z,61.21
2018-05-21T06:04:09.984Z,61.15
2018-05-21T06:05:09.969Z,61.67
2018-05-21T06:06:09.973Z,61.3
2018-05-21T06:07:10.197Z,60.48
2018-05-21T06:08:09.972Z,60.71
2018-05-21T06:09:09.990Z,61.02
2018-05-21T06:10:09.995Z,60.67
2018-05-21T06:11:09.923Z,61.38
2018-05-21T06:12:09.926Z,60.93
2018-05-21T06:13:09.996Z,61.2
2018-05-21T06:14:09.947Z,61.5
2018-05-21T06:15:09.967Z,60.8
2018-05-21T06:16:09.955Z,61.24
2018-05-21T06:17:09.968Z,60.8
2018-05-21T06:18:09.957Z,60.57
2018-05-21T06:19:09.963Z,61.24
2018-05-21T06:20:09.982Z,61.21
2018-05-21T06:21:09.998Z,61.26
2018-05-21T06:22:09.968Z,61.34
2018-05-21T06:23:09.966Z,60.66
2018-05-21T06:24:09.975Z,60.87
2018-05-21T06:25:09.951Z,60.58
2018-05-21T06:26:09.984Z,60.49
2018-05-21T06:27:09.963Z,60.93
2018-05-21T06:28:10.044Z,61.12
2018-05-21T06:29:10.006Z,60.97
2018-05-21T06:30:09.969Z,60.29
2018-05-21T06:31:09.993Z,60.25
2018-05-21T06:32:09.966Z,60.51
2018-05-21T06:33:09.969Z,60.55
2018-05-21T06:34:10.897Z,60.88
2018-05-21T06:35:10.040Z,60.49
2018-05-21T06:36:09.961Z,60.18
2018-05-21T06:37:09.990Z,60.9
2018-05-21T06:38:10.003Z,60.48
2018-05-21T06:39:10.013Z,60.48
2018-05-21T06:40:10.043Z,60.28
2018-05-21T06:41:10.342Z,60.7
2018-05-21T06:42:09.978Z,60.69
2018-05-21T06:43:09.956Z,60.44
2018-05-21T06:44:10.969Z,60.07
2018-05-21T06:45:09.981Z,59.99
2018-05-21T06:46:09.953Z,60.07
2018-05-21T06:47:10.105Z,60.22
2018-05-21T06:48:10.055Z,60.44
2018-05-21T06:49:10.053Z,59.95
2018-05-21T06:50:10.011Z,60.52
2018-05-21T06:51:10.080Z,60.25
2018-05-21T06:52:10.151Z,60.04
2018-05-21T06:53:10.007Z,60.35
2018-05-21T06:54:10.042Z,59.99
2018-05-21T06:55:10.020Z,60.13
2018-05-21T06:56:10.106Z,60.6
2018-05-21T06:57:10.141Z,60.38
2018-05-21T06:58:10.011Z,60.56
2018-05-21T06:59:09.979Z,59.72
2018-05-21T07:00:10.058Z,60.23
2018-05-21T07:01:09.993Z,59.78
2018-05-21T07:02:10.005Z,60.1
2018-05-21T07:03:10.019Z,60.49
2018-05-21T07:04:10.127Z,60.67
2018-05-21T07:05:10.022Z,60.39
2018-05-21T07:06:09.998Z,60.56
2018-05-21T07:07:10.205Z,60.52
2018-05-21T07:08:10.020Z,60.2
2018-05-21T07:09:10.004Z,60.2
2018-05-21T07:10:10.000Z,60.08
2018-05-21T07:11:10.018Z,60.33
2018-05-21T07:12:10.126Z,60.86
2018-05-21T07:13:09.985Z,60.17
2018-05-21T07:14:10.052Z,60.27
2018-05-21T07:15:10.156Z,60.28
2018-05-21T07:16:10.127Z,60.45
2018-05-21T07:17:09.997Z,60.78
2018-05-21T07:18:10.264Z,59.91
2018-05-21T07:19:10.141Z,60.51
2018-05-21T07:20:10.033Z,60.7
2018-05-21T07:21:09.978Z,60.57
2018-05-21T07:22:10.025Z,59.87
2018-05-21T07:23:10.014Z,60.43
2018-05-21T07:24:09.996Z,60.82
2018-05-21T07:25:10.059Z,60.05
2018-05-21T07:26:09.993Z,59.66
2018-05-21T07:27:10.014Z,59.91
2018-05-21T07:28:10.023Z,60.9
2018-05-21T07:29:10.119Z,60.27
2018-05-21T07:30:09.983Z,60.4
2018-05-21T07:31:10.087Z,60.18
2018-05-21T07:32:10.059Z,59.63
2018-05-21T07:33:10.000Z,60.39
2018-05-21T07:34:10.012Z,60.03
2018-05-21T07:35:09.995Z,60.55
2018-05-21T07:36:09.987Z,59.74
2018-05-21T07:37:10.001Z,60.17
2018-05-21T07:38:09.977Z,59.65
2018-05-21T07:39:10.007Z,59.69
2018-05-21T07:40:10.013Z,60.2
2018-05-21T07:41:10.002Z,59.29
2018-05-21T07:42:10.020Z,59.11
2018-05-21T07:43:10.112Z,58.65
2018-05-21T07:44:09.972Z,58.79
2018-05-21T07:45:10.045Z,60.46
2018-05-21T07:46:10.033Z,58.77
2018-05-21T07:47:09.989Z,58.93
2018-05-21T07:48:10.227Z,59.69
2018-05-21T07:49:09.990Z,59.03
2018-05-21T07:50:10.023Z,58.98
2018-05-21T07:51:10.009Z,58.81
2018-05-21T07:52:10.009Z,57.8
2018-05-21T07:53:10.073Z,58.27
2018-05-21T07:54:09.983Z,57.86
2018-05-21T07:55:09.989Z,57.75
2018-05-21T07:56:10.212Z,58.3
2018-05-21T07:57:10.010Z,58.52
2018-05-21T07:58:10.307Z,58.07
2018-05-21T07:59:10.034Z,57.33
2018-05-21T08:00:10.090Z,57.85
2018-05-21T08:01:10.021Z,58.4
2018-05-21T08:02:10.059Z,57.79
2018-05-21T08:03:10.045Z,57.9
2018-05-21T08:04:10.091Z,57.97
2018-05-21T08:05:10.171Z,57.74
2018-05-21T08:06:10.035Z,57.81
2018-05-21T08:07:10.035Z,57.61
2018-05-21T08:08:10.034Z,57.83
2018-05-21T08:09:10.089Z,57.36
2018-05-21T08:10:10.069Z,59.07
2018-05-21T08:11:10.047Z,57.71
2018-05-21T08:12:10.023Z,58.8
2018-05-21T08:13:10.059Z,58.43
2018-05-21T08:14:09.996Z,58.69
2018-05-21T08:15:10.246Z,57.25
2018-05-21T08:16:09.993Z,57.57
2018-05-21T08:17:10.014Z,57.46
2018-05-21T08:18:10.002Z,57.19
2018-05-21T08:19:10.001Z,58.15
2018-05-21T08:20:09.994Z,57.03
2018-05-21T08:21:10.021Z,56.97
2018-05-21T08:22:10.492Z,56.18
2018-05-21T08:23:10.077Z,56.09
2018-05-21T08:24:10.042Z,56.47
2018-05-21T08:25:10.055Z,57.15
2018-05-21T08:26:10.029Z,57.55
2018-05-21T08:27:10.056Z,56.9
2018-05-21T08:28:10.030Z,57.84
2018-05-21T08:29:10.022Z,57.22
2018-05-21T08:30:10.021Z,57.43
2018-05-21T08:31:10.053Z,57.42
2018-05-21T08:32:09.988Z,58.07
2018-05-21T08:33:10.029Z,56.76
2018-05-21T08:34:10.017Z,56.95
2018-05-21T08:35:10.001Z,57.68
2018-05-21T08:36:10.859Z,57.04
2018-05-21T08:37:10.019Z,57.09
2018-05-21T08:38:10.050Z,57.09
2018-05-21T08:39:10.402Z,57.26
2018-05-21T08:40:09.998Z,57.03
2018-05-21T08:41:10.019Z,57.95
2018-05-21T08:42:10.054Z,58.06
2018-05-21T08:43:10.094Z,57.29
2018-05-21T08:44:10.028Z,56.51
2018-05-21T08:45:10.671Z,57.04
2018-05-21T08:46:10.011Z,57.15
2018-05-21T08:47:10.084Z,57.63
2018-05-21T08:48:10.059Z,58.14
2018-05-21T08:49:10.036Z,57.84
2018-05-21T08:50:10.066Z,57.03
2018-05-21T08:51:10.012Z,58.36
2018-05-21T08:52:10.111Z,57.27
2018-05-21T08:53:10.224Z,57.88
2018-05-21T08:54:10.239Z,57.59
2018-05-21T08:55:10.392Z,57.34
2018-05-21T08:56:10.091Z,57.24
2018-05-21T08:57:10.061Z,56.83
2018-05-21T08:58:10.036Z,57.77
2018-05-21T08:59:10.079Z,57.41
2018-05-21T09:00:10.126Z,57.18
2018-05-21T09:01:10.054Z,56.57
2018-05-21T09:02:10.054Z,56.78
2018-05-21T09:03:10.068Z,56.83
2018-05-21T09:04:10.034Z,56.83
2018-05-21T09:05:10.062Z,57.32
2018-05-21T09:06:10.058Z,57.56
2018-05-21T09:07:10.409Z,57.18
2018-05-21T09:08:10.071Z,56.43
2018-05-21T09:09:10.104Z,57.25
2018-05-21T09:10:10.591Z,56.72
2018-05-21T09:11:10.063Z,57.27
2018-05-21T09:12:10.059Z,56.83
2018-05-21T09:13:10.079Z,58
2018-05-21T09:14:10.235Z,57.11
2018-05-21T09:15:10.048Z,58.31
2018-05-21T09:16:10.054Z,56.62
2018-05-21T09:17:10.072Z,56.97
2018-05-21T09:18:10.241Z,57.69
2018-05-21T09:19:10.079Z,57.65
2018-05-21T09:20:10.078Z,57.55
2018-05-21T09:21:10.040Z,57.54
2018-05-21T09:22:10.035Z,56.93
2018-05-21T09:23:10.045Z,57.8
2018-05-21T09:24:10.048Z,57.75
2018-05-21T09:25:10.073Z,57.69
2018-05-21T09:26:10.715Z,56.84
2018-05-21T09:27:10.043Z,56.63
2018-05-21T09:28:10.033Z,56.87
2018-05-21T09:29:10.054Z,56.94
2018-05-21T09:30:10.096Z,57.21
2018-05-21T09:31:10.261Z,56.37
2018-05-21T09:32:10.046Z,55.63
2018-05-21T09:33:10.084Z,55.89
2018-05-21T09:34:10.158Z,55.68
2018-05-21T09:35:10.046Z,55.33
2018-05-21T09:36:10.175Z,55.6
2018-05-21T09:37:10.093Z,56.28
2018-05-21T09:38:10.114Z,57.2
2018-05-21T09:39:10.113Z,55.74
2018-05-21T09:40:10.069Z,56.67
2018-05-21T09:41:10.043Z,56.93
2018-05-21T09:42:10.055Z,55.83
2018-05-21T09:43:10.082Z,56
2018-05-21T09:44:10.097Z,56.9
2018-05-21T09:45:10.109Z,56.1
2018-05-21T09:46:10.066Z,55.69
2018-05-21T09:47:10.069Z,55.79
2018-05-21T09:48:10.203Z,56.19
2018-05-21T09:49:10.079Z,55.1
2018-05-21T09:50:10.084Z,56.31
2018-05-21T09:51:10.134Z,55.44
2018-05-21T09:52:10.145Z,55.37
2018-05-21T09:53:10.095Z,56.27
2018-05-21T09:54:10.068Z,55.92
2018-05-21T09:55:10.044Z,56.22
2018-05-21T09:56:10.056Z,55.64
2018-05-21T09:57:10.060Z,55.8
2018-05-21T09:58:10.094Z,55.71
2018-05-21T09:59:10.119Z,55.21
2018-05-21T10:00:10.071Z,54.89
2018-05-21T10:01:10.254Z,53.72
2018-05-21T10:02:10.096Z,54.66
2018-05-21T10:03:10.083Z,55.99
2018-05-21T10:04:10.234Z,55.32
2018-05-21T10:05:10.167Z,53.82
2018-05-21T10:06:10.099Z,53.68
2018-05-21T10:07:10.190Z,52.79
2018-05-21T10:08:10.090Z,53.5
2018-05-21T10:09:10.214Z,53.25
2018-05-21T10:10:10.067Z,53.41
2018-05-21T10:11:10.116Z,53.51
2018-05-21T10:12:11.762Z,53.59
2018-05-21T10:13:10.061Z,54.15
2018-05-21T10:14:10.149Z,54.06
2018-05-21T10:15:10.237Z,53.92
2018-05-21T10:16:10.065Z,55.16
2018-05-21T10:17:10.383Z,54.29
2018-05-21T10:18:10.285Z,52.47
2018-05-21T10:19:10.117Z,52.69
2018-05-21T10:20:10.288Z,53.34
2018-05-21T10:21:10.280Z,52.75
2018-05-21T10:22:10.284Z,53.78
2018-05-21T10:23:10.194Z,53.31
2018-05-21T10:24:10.228Z,52.45
2018-05-21T10:25:10.208Z,52.84
2018-05-21T10:26:10.402Z,52.91
2018-05-21T10:27:10.240Z,53.72
2018-05-21T10:28:10.236Z,52.68
2018-05-21T10:29:10.243Z,53.49
2018-05-21T10:30:10.295Z,53.64
2018-05-21T10:31:10.252Z,54.21
2018-05-21T10:32:10.254Z,53.85
2018-05-21T10:33:10.916Z,54.26
2018-05-21T10:34:10.294Z,53.38
2018-05-21T10:35:10.218Z,53.65
2018-05-21T10:36:10.848Z,53.09
2018-05-21T10:37:10.668Z,53.48
2018-05-21T10:38:10.315Z,53.51
2018-05-21T10:39:10.199Z,53.41
2018-05-21T10:40:10.300Z,53.87
2018-05-21T10:41:10.212Z,53.1
2018-05-21T10:42:10.219Z,53.91
2018-05-21T10:43:10.079Z,53.06
2018-05-21T10:44:10.246Z,53.55
2018-05-21T10:45:10.331Z,52.65
2018-05-21T10:46:10.088Z,51.43
2018-05-21T10:47:10.251Z,50.88
2018-05-21T10:48:10.189Z,50.8
2018-05-21T10:49:10.338Z,52.1
2018-05-21T10:50:10.168Z,52.5
2018-05-21T10:51:10.109Z,52.09
2018-05-21T10:52:10.122Z,51.55
2018-05-21T10:53:10.243Z,52.86
2018-05-21T10:54:10.125Z,51.36
2018-05-21T10:55:10.341Z,52.24
2018-05-21T10:56:10.246Z,51.82
2018-05-21T10:57:10.173Z,51.66
2018-05-21T10:58:10.175Z,52.03
2018-05-21T10:59:10.170Z,52.05
2018-05-21T11:00:10.216Z,52.66
2018-05-21T11:01:10.096Z,52.42
2018-05-21T11:02:10.159Z,52.15
2018-05-21T11:03:10.099Z,51.43
2018-05-21T11:04:10.128Z,53.33
2018-05-21T11:05:10.124Z,50.88
2018-05-21T11:06:10.109Z,51
2018-05-21T11:07:10.119Z,50.49
2018-05-21T11:08:10.139Z,50.89
2018-05-21T11:09:10.113Z,50.62
2018-05-21T11:10:10.092Z,50.08
2018-05-21T11:11:10.128Z,50.93
2018-05-21T11:12:10.406Z,50.89
2018-05-21T11:13:10.188Z,51.46
2018-05-21T11:14:10.145Z,51.29
2018-05-21T11:15:10.097Z,51.07
2018-05-21T11:16:10.091Z,51.52
2018-05-21T11:17:10.128Z,51.08
2018-05-21T11:18:10.129Z,51.58
2018-05-21T11:19:10.270Z,51.88
2018-05-21T11:20:10.272Z,50.77
2018-05-21T11:21:10.127Z,51.66
2018-05-21T11:22:10.110Z,51.51
2018-05-21T11:23:10.116Z,51.56
2018-05-21T11:24:10.171Z,50.77
2018-05-21T11:25:10.209Z,50.53
2018-05-21T11:26:10.155Z,49.28
2018-05-21T11:27:10.204Z,49.11
2018-05-21T11:28:10.152Z,48.54
2018-05-21T11:29:10.204Z,48.62
2018-05-21T11:30:10.871Z,49.89
2018-05-21T11:31:10.343Z,50.06
2018-05-21T11:32:10.123Z,50.01
2018-05-21T11:33:10.148Z,51
2018-05-21T11:34:10.131Z,49.07
2018-05-21T11:35:10.222Z,51.09
2018-05-21T11:36:10.207Z,49.88
2018-05-21T11:37:10.123Z,50.49
2018-05-21T11:38:10.113Z,50.24
2018-05-21T11:39:10.200Z,49.95
2018-05-21T11:40:10.170Z,50.18
2018-05-21T11:41:10.162Z,50.11
2018-05-21T11:42:10.159Z,48.11
2018-05-21T11:43:10.105Z,48.46
2018-05-21T11:44:10.122Z,49.08
2018-05-21T11:45:10.184Z,48.92
2018-05-21T11:46:10.211Z,48.49
2018-05-21T11:47:10.135Z,47.77
2018-05-21T11:48:10.161Z,48.08
2018-05-21T11:49:10.199Z,48.88
2018-05-21T11:50:10.237Z,49.09
2018-05-21T11:51:10.291Z,49.05
2018-05-21T11:52:10.145Z,49.71
2018-05-21T11:53:10.176Z,48.5
2018-05-21T11:54:10.270Z,49.5
2018-05-21T11:55:10.309Z,49.32
2018-05-21T11:56:10.152Z,49.36
2018-05-21T11:57:10.367Z,49.87
2018-05-21T11:58:10.335Z,49.34
2018-05-21T11:59:10.163Z,48.89
2018-05-21T12:00:10.162Z,48.44
2018-05-21T12:01:10.149Z,49.09
2018-05-21T12:02:10.136Z,49.83
2018-05-21T12:03:10.177Z,49.5
2018-05-21T12:04:11.143Z,48.65
2018-05-21T12:05:10.151Z,48.35
2018-05-21T12:06:10.162Z,48.14
2018-05-21T12:07:10.235Z,46.93
2018-05-21T12:08:10.151Z,48.6
2018-05-21T12:09:10.146Z,48.5
2018-05-21T12:10:10.171Z,49.37
2018-05-21T12:11:15.338Z,48.76
2018-05-21T12:12:10.161Z,49.74
2018-05-21T12:13:10.144Z,49.45
2018-05-21T12:14:10.168Z,48.41
2018-05-21T12:15:10.179Z,47.06
2018-05-21T12:16:10.161Z,47.24
2018-05-21T12:17:10.192Z,47.6
2018-05-21T12:18:10.151Z,47.37
2018-05-21T12:19:10.159Z,47.37
2018-05-21T12:20:10.176Z,48.33
2018-05-21T12:21:10.283Z,47.54
2018-05-21T12:22:10.366Z,47.8
2018-05-21T12:23:10.210Z,47.02
2018-05-21T12:24:10.229Z,47.98
2018-05-21T12:25:10.153Z,47.62
2018-05-21T12:26:10.177Z,48.61
2018-05-21T12:27:10.257Z,48.42
2018-05-21T12:28:10.206Z,47.79
2018-05-21T12:29:10.259Z,47.14
2018-05-21T12:30:10.238Z,46.73
2018-05-21T12:31:10.370Z,46.41
2018-05-21T12:32:10.252Z,47.67
2018-05-21T12:33:10.228Z,47.32
2018-05-21T12:34:10.612Z,46.37
2018-05-21T12:35:10.204Z,47.4
2018-05-21T12:36:10.190Z,47.5
2018-05-21T12:37:10.310Z,46.87
2018-05-21T12:38:10.502Z,46.43
2018-05-21T12:39:10.264Z,45.6
2018-05-21T12:40:10.220Z,46.47
2018-05-21T12:41:10.170Z,46.77
2018-05-21T12:42:10.225Z,46.99
2018-05-21T12:43:10.230Z,46.28
2018-05-21T12:44:10.480Z,46.99
2018-05-21T12:45:10.198Z,47.68
2018-05-21T12:46:10.253Z,46.47
2018-05-21T12:47:10.153Z,46.62
2018-05-21T12:48:10.207Z,45.37
2018-05-21T12:49:10.274Z,45.44
2018-05-21T12:50:10.179Z,45.76
2018-05-21T12:51:10.163Z,47.06
2018-05-21T12:52:10.220Z,46.87
2018-05-21T12:53:10.166Z,47.51
2018-05-21T12:54:10.191Z,47.86
2018-05-21T12:55:10.331Z,47.41